createdAt,value
2023-01-29T12:01:07.354Z,34.75
2023-01-29T12:03:43.805Z,27.40
2023-01-29T12:06:22.902Z,28.33
2023-01-29T12:08:58.452Z,27.40
2023-01-29T12:11:28.451Z,24.63
2023-01-29T12:13:57.459Z,24.50
2023-01-29T12:16:33.284Z,24.77
2023-01-29T12:19:47.555Z,26.10
2023-01-29T12:22:32.119Z,23.70
2023-01-29T12:25:07.213Z,27.17
2023-01-29T12:27:48.456Z,25.00
2023-01-29T12:31:02.638Z,25.73
2023-01-29T12:33:47.975Z,21.80
2023-01-29T12:36:24.581Z,23.47
2023-01-29T12:38:51.765Z,25.50
2023-01-29T12:41:21.531Z,22.57
2023-01-29T12:43:59.340Z,21.07
2023-01-29T12:46:31.755Z,22.77
2023-01-29T12:49:02.637Z,20.87
2023-01-29T12:51:38.730Z,20.40
2023-01-29T12:54:18.161Z,21.53
2023-01-29T12:56:49.060Z,21.73
2023-01-29T12:59:28.960Z,19.70
2023-01-29T13:02:12.043Z,20.57
2023-01-29T13:04:45.689Z,22.57
2023-01-29T13:07:18.889Z,19.53
2023-01-29T13:09:50.997Z,21.87
2023-01-29T13:12:19.441Z,21.00
2023-01-29T13:14:54.069Z,17.87
2023-01-29T13:17:26.520Z,21.10
2023-01-29T13:19:57.450Z,22.50
2023-01-29T13:22:32.348Z,22.53
2023-01-29T13:25:05.193Z,20.37
2023-01-29T13:27:35.283Z,22.67
2023-01-29T13:30:02.575Z,21.97
2023-01-29T13:32:31.819Z,20.07
2023-01-29T13:35:03.120Z,22.17
2023-01-29T13:37:34.258Z,20.93
2023-01-29T13:40:03.461Z,22.90
2023-01-29T13:42:45.669Z,19.87
2023-01-29T13:45:25.959Z,20.97
2023-01-29T13:47:53.766Z,22.07
2023-01-29T13:50:39.746Z,21.97
2023-01-29T13:53:08.506Z,22.10
2023-01-29T13:55:40.087Z,23.17
2023-01-29T13:58:17.416Z,23.20
2023-01-29T14:00:44.591Z,22.30
2023-01-29T14:03:11.836Z,23.80
2023-01-29T14:05:55.029Z,22.20
2023-01-29T14:08:44.831Z,21.47
2023-01-29T14:11:17.669Z,21.03
2023-01-29T14:13:46.415Z,21.13
2023-01-29T14:16:13.174Z,20.43
2023-01-29T14:19:06.240Z,19.43
2023-01-29T14:21:35.032Z,22.13
2023-01-29T14:24:23.708Z,19.87
2023-01-29T14:26:55.151Z,20.10
2023-01-29T14:29:35.424Z,20.67
2023-01-29T14:32:08.421Z,19.90
2023-01-29T14:34:44.941Z,22.40
2023-01-29T14:37:14.894Z,25.07
2023-01-29T14:39:50.850Z,22.47
2023-01-29T14:42:33.801Z,23.40
2023-01-29T14:45:26.089Z,20.97
2023-01-29T14:47:55.838Z,21.93
2023-01-29T14:50:31.929Z,22.20
2023-01-29T14:53:23.439Z,23.17
2023-01-29T14:55:58.826Z,22.67
2023-01-29T14:58:25.638Z,21.53
2023-01-29T15:00:55.505Z,22.30
2023-01-29T15:03:44.111Z,22.03
2023-01-29T15:06:18.398Z,24.03
2023-01-29T15:09:00.139Z,22.37
2023-01-29T15:11:53.574Z,21.00
2023-01-29T15:14:34.028Z,21.17
2023-01-29T15:17:43.345Z,22.73
2023-01-29T15:20:33.371Z,21.73
2023-01-29T15:23:03.157Z,23.73
2023-01-29T15:25:46.685Z,21.90
2023-01-29T15:28:13.459Z,23.83
2023-01-29T15:30:43.133Z,23.53
2023-01-29T15:33:11.598Z,25.80
2023-01-29T15:35:41.509Z,24.73
2023-01-29T15:38:20.077Z,22.37
2023-01-29T15:41:17.484Z,23.10
2023-01-29T15:43:57.113Z,23.43
2023-01-29T15:46:40.129Z,24.83
2023-01-29T15:49:31.637Z,22.23
2023-01-29T15:52:01.017Z,23.00
2023-01-29T15:54:31.517Z,24.10
2023-01-29T15:56:59.218Z,23.43
2023-01-29T15:59:31.070Z,24.20
2023-01-29T16:01:58.214Z,24.40
2023-01-29T16:04:28.875Z,25.43
2023-01-29T16:06:57.084Z,25.93
2023-01-29T16:09:26.329Z,25.20
2023-01-29T16:11:57.560Z,26.13
2023-01-29T16:14:25.765Z,24.77
2023-01-29T16:16:53.755Z,24.93
2023-01-29T16:19:29.443Z,22.93
2023-01-29T16:22:00.656Z,26.60
2023-01-29T16:24:29.163Z,26.87
2023-01-29T16:27:13.956Z,27.37
2023-01-29T16:29:40.923Z,23.73
2023-01-29T16:32:09.309Z,25.07
2023-01-29T16:34:39.820Z,26.57
2023-01-29T16:37:17.690Z,24.00
2023-01-29T16:39:47.651Z,24.17
2023-01-29T16:42:20.351Z,25.43
2023-01-29T16:44:59.043Z,24.63
2023-01-29T16:47:41.572Z,25.40
2023-01-29T16:50:40.689Z,25.70
2023-01-29T16:53:24.579Z,25.60
2023-01-29T16:55:52.915Z,24.73
2023-01-29T16:58:22.837Z,24.50
2023-01-29T17:01:10.878Z,26.57
2023-01-29T17:03:38.612Z,24.00
2023-01-29T17:06:12.870Z,25.97
2023-01-29T17:08:42.455Z,22.90
2023-01-29T17:11:11.583Z,24.57
2023-01-29T17:13:45.942Z,21.20
2023-01-29T17:16:27.740Z,24.13
2023-01-29T17:18:54.857Z,23.93
2023-01-29T17:21:22.019Z,23.50
2023-01-29T17:23:48.982Z,23.80
2023-01-29T17:26:16.098Z,23.53
2023-01-29T17:28:43.214Z,22.77
2023-01-29T17:31:10.377Z,25.23
2023-01-29T17:33:41.597Z,24.60
2023-01-29T17:36:13.262Z,23.10
2023-01-29T17:38:40.945Z,23.70
2023-01-29T17:41:27.736Z,22.80
2023-01-29T17:43:54.753Z,24.67
2023-01-29T17:46:21.838Z,24.07
2023-01-29T17:48:52.314Z,25.33
2023-01-29T17:51:24.818Z,26.30
2023-01-29T17:53:52.064Z,26.37
2023-01-29T17:56:24.118Z,23.43
2023-01-29T17:58:51.247Z,27.33
2023-01-29T18:01:18.377Z,26.07
2023-01-29T18:03:45.577Z,22.97
2023-01-29T18:06:36.148Z,26.10
2023-01-29T18:09:03.232Z,25.70
2023-01-29T18:11:30.560Z,27.10
2023-01-29T18:13:57.296Z,27.40
2023-01-29T18:16:25.105Z,28.50
2023-01-29T18:18:53.003Z,30.17
2023-01-29T18:21:20.024Z,27.43
2023-01-29T18:23:46.811Z,25.40
2023-01-29T18:26:16.346Z,26.70
2023-01-29T18:28:43.818Z,29.53
2023-01-29T18:31:13.099Z,30.80
2023-01-29T18:33:41.064Z,29.80
2023-01-29T18:36:08.412Z,29.30
2023-01-29T18:38:35.591Z,26.37
2023-01-29T18:41:13.219Z,29.40
2023-01-29T18:43:41.703Z,26.87
2023-01-29T18:46:09.309Z,28.40
2023-01-29T18:48:36.588Z,25.13
2023-01-29T18:51:03.739Z,27.53
2023-01-29T18:53:30.487Z,24.17
2023-01-29T18:55:59.218Z,29.37
2023-01-29T18:58:36.421Z,30.67
2023-01-29T19:01:10.064Z,27.87
2023-01-29T19:03:39.774Z,29.23
2023-01-29T19:06:08.533Z,31.67
2023-01-29T19:08:35.769Z,29.40
2023-01-29T19:11:05.552Z,29.63
2023-01-29T19:13:32.951Z,29.77
2023-01-29T19:15:59.744Z,28.50
2023-01-29T19:18:27.454Z,29.20
2023-01-29T19:20:54.909Z,28.77
2023-01-29T19:23:22.062Z,27.27
2023-01-29T19:25:48.857Z,24.87
2023-01-29T19:28:16.016Z,26.50
2023-01-29T19:30:42.918Z,29.00
2023-01-29T19:33:10.506Z,28.70
2023-01-29T19:35:37.391Z,26.93
2023-01-29T19:38:04.578Z,24.93
2023-01-29T19:40:31.748Z,26.77
2023-01-29T19:42:59.416Z,28.07
2023-01-29T19:45:38.604Z,25.03
2023-01-29T19:48:14.778Z,27.50
2023-01-29T19:50:42.333Z,25.87
2023-01-29T19:53:09.813Z,25.50
2023-01-29T19:55:36.987Z,29.40
2023-01-29T19:58:04.788Z,27.93
2023-01-29T20:00:31.543Z,25.87
2023-01-29T20:02:58.311Z,32.17
2023-01-29T20:05:27.113Z,27.17
2023-01-29T20:07:54.336Z,28.17
2023-01-29T20:10:21.649Z,29.60
2023-01-29T20:12:48.433Z,23.13
2023-01-29T20:15:15.762Z,28.87
2023-01-29T20:17:45.498Z,24.80
2023-01-29T20:20:12.957Z,26.70
2023-01-29T20:22:40.125Z,27.30
2023-01-29T20:25:07.265Z,26.17
2023-01-29T20:27:34.283Z,31.20
2023-01-29T20:30:01.421Z,32.20
2023-01-29T20:32:28.206Z,28.90
2023-01-29T20:34:54.883Z,26.90
2023-01-29T20:37:21.576Z,25.70
2023-01-29T20:39:48.887Z,25.90
2023-01-29T20:42:15.589Z,30.80
2023-01-29T20:44:42.736Z,23.33
2023-01-29T20:47:09.651Z,25.20
2023-01-29T20:49:36.893Z,26.50
2023-01-29T20:52:03.733Z,25.13
2023-01-29T20:54:33.112Z,22.60
2023-01-29T20:57:00.195Z,24.67
2023-01-29T20:59:28.938Z,26.70
2023-01-29T21:01:56.033Z,21.30
2023-01-29T21:04:23.309Z,25.33
2023-01-29T21:06:50.520Z,22.00
2023-01-29T21:09:17.286Z,21.43
2023-01-29T21:11:45.090Z,23.90
2023-01-29T21:14:12.469Z,25.43
2023-01-29T21:16:39.314Z,24.80
2023-01-29T21:19:06.286Z,23.43
2023-01-29T21:21:33.083Z,25.50
2023-01-29T21:23:59.808Z,24.13
2023-01-29T21:26:26.968Z,24.97
2023-01-29T21:28:54.194Z,21.43
2023-01-29T21:31:21.779Z,25.50
2023-01-29T21:33:48.964Z,24.50
2023-01-29T21:36:15.702Z,26.17
2023-01-29T21:38:42.452Z,23.30
2023-01-29T21:41:10.075Z,25.80
2023-01-29T21:43:37.385Z,22.97
2023-01-29T21:46:11.318Z,25.93
2023-01-29T21:48:39.351Z,24.80
2023-01-29T21:51:06.573Z,25.30
2023-01-29T21:53:33.692Z,25.40
2023-01-29T21:56:02.314Z,24.33
2023-01-29T21:58:29.895Z,23.13
2023-01-29T22:00:56.890Z,23.80
2023-01-29T22:03:42.496Z,25.50
2023-01-29T22:06:09.460Z,23.97
2023-01-29T22:08:36.162Z,25.10
2023-01-29T22:11:07.842Z,26.03
2023-01-29T22:13:34.661Z,23.93
2023-01-29T22:16:01.503Z,24.10
2023-01-29T22:18:28.182Z,26.10
2023-01-29T22:20:56.153Z,25.53
2023-01-29T22:23:23.969Z,24.90
2023-01-29T22:25:51.006Z,24.70
2023-01-29T22:28:18.496Z,24.60
2023-01-29T22:30:45.780Z,25.50
2023-01-29T22:33:12.935Z,24.73
2023-01-29T22:35:40.070Z,25.10
2023-01-29T22:38:07.728Z,24.53
2023-01-29T22:40:34.835Z,22.23
2023-01-29T22:43:01.953Z,23.77
2023-01-29T22:45:28.686Z,27.00
2023-01-29T22:47:55.840Z,25.77
2023-01-29T22:50:22.565Z,22.60
2023-01-29T22:52:54.117Z,24.47
2023-01-29T22:55:21.141Z,23.40
2023-01-29T22:57:51.072Z,23.90
2023-01-29T23:00:18.734Z,26.67
2023-01-29T23:02:49.585Z,25.30
2023-01-29T23:05:17.341Z,25.70
2023-01-29T23:07:45.113Z,22.87
2023-01-29T23:10:13.913Z,22.50
2023-01-29T23:12:40.727Z,28.93
2023-01-29T23:15:07.910Z,25.80
2023-01-29T23:17:34.735Z,25.93
2023-01-29T23:20:01.846Z,24.93
2023-01-29T23:22:28.601Z,26.93
2023-01-29T23:24:56.363Z,23.70
2023-01-29T23:27:23.581Z,26.90
2023-01-29T23:29:50.721Z,27.90
2023-01-29T23:32:19.566Z,25.73
2023-01-29T23:34:46.360Z,26.90
2023-01-29T23:37:13.442Z,25.60
2023-01-29T23:39:40.146Z,29.90
2023-01-29T23:42:06.902Z,28.77
2023-01-29T23:44:33.651Z,26.93
2023-01-29T23:47:00.456Z,25.37
2023-01-29T23:49:27.313Z,26.30
2023-01-29T23:51:54.085Z,25.20
2023-01-29T23:54:20.827Z,26.97
2023-01-29T23:56:47.623Z,27.13
2023-01-29T23:59:15.078Z,26.73
